createdAt,value
2023-08-29T00:01:44.824Z,23.48
2023-08-29T00:04:12.370Z,23.41
2023-08-29T00:06:39.590Z,23.32
2023-08-29T00:09:07.338Z,23.24
2023-08-29T00:11:35.214Z,23.16
2023-08-29T00:14:02.424Z,23.07
2023-08-29T00:16:29.583Z,23.01
2023-08-29T00:18:56.742Z,22.95
2023-08-29T00:21:23.972Z,22.89
2023-08-29T00:23:50.974Z,22.83
2023-08-29T00:26:18.138Z,22.77
2023-08-29T00:28:45.538Z,22.73
2023-08-29T00:31:12.701Z,22.72
2023-08-29T00:33:40.032Z,22.70
2023-08-29T00:36:07.168Z,22.68
2023-08-29T00:38:36.520Z,22.67
2023-08-29T00:41:04.496Z,22.64
2023-08-29T00:43:31.976Z,22.63
2023-08-29T00:46:01.201Z,22.61
2023-08-29T00:48:28.436Z,22.62
2023-08-29T00:50:55.641Z,22.62
2023-08-29T00:53:24.238Z,22.61
2023-08-29T00:55:52.093Z,22.61
2023-08-29T00:58:19.904Z,22.61
2023-08-29T01:00:47.261Z,22.59
2023-08-29T01:03:14.669Z,22.58
2023-08-29T01:05:41.915Z,22.54
2023-08-29T01:08:09.262Z,22.51
2023-08-29T01:11:04.680Z,22.47
2023-08-29T01:13:44.771Z,22.44
2023-08-29T01:16:13.790Z,22.42
2023-08-29T01:18:41.609Z,22.41
2023-08-29T01:21:18.650Z,22.38
2023-08-29T01:23:49.474Z,22.38
2023-08-29T01:26:17.403Z,22.39
2023-08-29T01:28:46.688Z,22.40
2023-08-29T01:31:14.588Z,22.38
2023-08-29T01:33:42.350Z,22.39
2023-08-29T01:36:09.681Z,22.39
2023-08-29T01:38:36.886Z,22.40
2023-08-29T01:41:04.260Z,22.42
2023-08-29T01:43:31.529Z,22.43
2023-08-29T01:45:58.674Z,22.41
2023-08-29T01:48:26.341Z,22.40
2023-08-29T01:50:53.937Z,22.36
2023-08-29T01:53:21.046Z,22.32
2023-08-29T01:55:48.954Z,22.28
2023-08-29T01:58:16.824Z,22.27
2023-08-29T02:00:44.890Z,22.22
2023-08-29T02:03:12.274Z,22.21
2023-08-29T02:05:41.489Z,22.19
2023-08-29T02:08:08.950Z,22.15
2023-08-29T02:10:36.514Z,22.12
2023-08-29T02:13:03.891Z,22.11
2023-08-29T02:15:31.119Z,22.11
2023-08-29T02:17:59.296Z,22.11
2023-08-29T02:20:26.573Z,22.11
2023-08-29T02:22:54.040Z,22.11
2023-08-29T02:25:21.233Z,22.12
2023-08-29T02:27:48.440Z,22.13
2023-08-29T02:30:16.298Z,22.12
2023-08-29T02:32:43.649Z,22.12
2023-08-29T02:35:11.895Z,22.13
2023-08-29T02:37:39.052Z,22.13
2023-08-29T02:40:09.080Z,22.11
2023-08-29T02:42:37.189Z,22.12
2023-08-29T02:45:04.957Z,22.12
2023-08-29T02:47:32.062Z,22.11
2023-08-29T02:49:59.294Z,22.09
2023-08-29T02:52:26.449Z,22.06
2023-08-29T02:54:53.938Z,22.03
2023-08-29T02:57:21.556Z,22.00
2023-08-29T02:59:48.728Z,21.96
2023-08-29T03:02:15.908Z,21.92
2023-08-29T03:04:43.107Z,21.88
2023-08-29T03:07:10.404Z,21.86
2023-08-29T03:09:37.417Z,21.84
2023-08-29T03:12:05.928Z,21.82
2023-08-29T03:14:33.049Z,21.80
2023-08-29T03:17:00.207Z,21.78
2023-08-29T03:19:27.747Z,21.74
2023-08-29T03:21:54.991Z,21.71
2023-08-29T03:24:22.293Z,21.68
2023-08-29T03:26:49.573Z,21.65
2023-08-29T03:29:17.115Z,21.62
2023-08-29T03:31:45.236Z,21.58
2023-08-29T03:34:12.809Z,21.52
2023-08-29T03:36:39.966Z,21.49
2023-08-29T03:39:07.060Z,21.44
2023-08-29T03:41:34.833Z,21.40
2023-08-29T03:44:02.134Z,21.35
2023-08-29T03:46:30.336Z,21.26
2023-08-29T03:48:58.147Z,21.22
2023-08-29T03:51:25.321Z,21.15
2023-08-29T03:53:53.393Z,21.11
2023-08-29T03:56:20.591Z,21.06
2023-08-29T03:58:49.672Z,21.02
2023-08-29T04:01:20.271Z,20.99
2023-08-29T04:03:49.609Z,20.98
2023-08-29T04:06:21.804Z,20.95
2023-08-29T04:08:48.841Z,20.93
2023-08-29T04:11:16.167Z,20.91
2023-08-29T04:13:43.766Z,20.89
2023-08-29T04:16:11.015Z,20.86
2023-08-29T04:18:38.697Z,20.82
2023-08-29T04:21:06.156Z,20.82
2023-08-29T04:23:33.279Z,20.78
2023-08-29T04:26:01.577Z,20.73
2023-08-29T04:28:28.942Z,20.69
2023-08-29T04:30:56.338Z,20.69
2023-08-29T04:33:25.605Z,20.68
2023-08-29T04:35:53.224Z,20.67
2023-08-29T04:38:20.422Z,20.66
2023-08-29T04:40:47.714Z,20.67
2023-08-29T04:43:14.704Z,20.68
2023-08-29T04:45:43.982Z,20.70
2023-08-29T04:48:11.499Z,20.74
2023-08-29T04:50:40.220Z,20.76
2023-08-29T04:53:07.402Z,20.81
2023-08-29T04:55:34.558Z,20.84
2023-08-29T04:58:01.856Z,20.90
2023-08-29T05:00:29.634Z,20.94
2023-08-29T05:02:57.218Z,20.97
2023-08-29T05:05:24.707Z,21.05
2023-08-29T05:07:51.877Z,21.11
2023-08-29T05:10:20.949Z,21.17
2023-08-29T05:12:48.227Z,21.25
2023-08-29T05:15:17.098Z,21.32
2023-08-29T05:17:46.264Z,21.40
2023-08-29T05:20:13.657Z,21.46
2023-08-29T05:22:41.135Z,21.54
2023-08-29T05:25:10.847Z,21.62
2023-08-29T05:27:38.081Z,21.68
2023-08-29T05:30:07.086Z,21.76
2023-08-29T05:32:34.568Z,21.83
2023-08-29T05:35:01.865Z,21.91
2023-08-29T05:37:29.069Z,21.99
2023-08-29T05:39:56.424Z,22.06
2023-08-29T05:42:23.646Z,22.14
2023-08-29T05:44:50.884Z,22.21
2023-08-29T05:47:18.336Z,22.31
2023-08-29T05:49:45.411Z,22.39
2023-08-29T05:52:12.543Z,22.49
2023-08-29T05:54:40.000Z,22.57
2023-08-29T05:57:07.491Z,22.65
2023-08-29T05:59:34.886Z,22.75
2023-08-29T06:02:03.719Z,22.84
2023-08-29T06:04:31.182Z,22.93
2023-08-29T06:06:58.194Z,23.02
2023-08-29T06:09:25.375Z,23.11
2023-08-29T06:11:52.656Z,23.20
2023-08-29T06:14:19.801Z,23.30
2023-08-29T06:16:47.070Z,23.38
2023-08-29T06:19:14.245Z,23.49
2023-08-29T06:21:41.496Z,23.60
2023-08-29T06:24:08.949Z,23.69
2023-08-29T06:26:37.918Z,23.79
2023-08-29T06:29:05.058Z,23.90
2023-08-29T06:31:32.496Z,24.03
2023-08-29T06:34:00.378Z,24.15
2023-08-29T06:36:28.133Z,24.28
2023-08-29T06:38:55.281Z,24.41
2023-08-29T06:41:22.719Z,24.56
2023-08-29T06:43:49.916Z,24.71
2023-08-29T06:46:17.104Z,24.87
2023-08-29T06:48:44.461Z,25.05
2023-08-29T06:51:12.945Z,25.24
2023-08-29T06:53:40.303Z,25.40
2023-08-29T06:56:07.591Z,25.56
2023-08-29T06:58:35.042Z,25.72
2023-08-29T07:01:02.372Z,25.90
2023-08-29T07:03:29.810Z,26.06
2023-08-29T07:05:56.940Z,26.26
2023-08-29T07:08:24.257Z,26.43
2023-08-29T07:10:51.335Z,26.61
2023-08-29T07:13:18.547Z,26.81
2023-08-29T07:15:45.688Z,26.99
2023-08-29T07:18:13.788Z,27.19
2023-08-29T07:20:41.126Z,27.38
2023-08-29T07:23:08.255Z,27.58
2023-08-29T07:25:39.790Z,27.79
2023-08-29T07:28:11.010Z,27.98
2023-08-29T07:30:47.213Z,28.20
2023-08-29T07:33:15.317Z,28.41
2023-08-29T07:35:43.392Z,28.63
2023-08-29T07:38:10.935Z,28.87
2023-08-29T07:40:38.386Z,29.10
2023-08-29T07:43:08.188Z,29.33
2023-08-29T07:45:35.514Z,29.54
2023-08-29T07:48:03.430Z,29.74
2023-08-29T07:50:30.677Z,29.93
2023-08-29T07:52:58.185Z,30.11
2023-08-29T07:55:25.670Z,30.30
2023-08-29T07:57:52.858Z,30.47
2023-08-29T08:00:20.279Z,30.64
2023-08-29T08:02:47.523Z,30.78
2023-08-29T08:05:16.070Z,30.91
2023-08-29T08:07:45.776Z,31.05
2023-08-29T08:10:14.735Z,31.19
2023-08-29T08:12:42.001Z,31.31
2023-08-29T08:15:10.142Z,31.45
2023-08-29T08:17:37.888Z,31.52
2023-08-29T08:20:08.311Z,31.60
2023-08-29T08:22:36.708Z,31.70
2023-08-29T08:25:04.828Z,31.79
2023-08-29T08:27:32.063Z,31.92
2023-08-29T08:30:00.362Z,32.06
2023-08-29T08:32:27.892Z,32.13
2023-08-29T08:34:56.268Z,32.22
2023-08-29T08:37:23.527Z,32.29
2023-08-29T08:39:50.797Z,32.39
2023-08-29T08:42:19.462Z,32.47
2023-08-29T08:44:46.903Z,32.58
2023-08-29T08:47:14.232Z,32.65
2023-08-29T08:49:41.645Z,32.73
2023-08-29T08:52:11.648Z,32.81
2023-08-29T08:54:39.653Z,32.88
2023-08-29T08:57:07.256Z,32.93
2023-08-29T08:59:34.921Z,32.93
2023-08-29T09:02:01.971Z,32.92
2023-08-29T09:04:29.269Z,32.92
2023-08-29T09:06:56.532Z,32.90
2023-08-29T09:09:23.927Z,32.93
2023-08-29T09:11:52.932Z,32.94
2023-08-29T09:14:20.978Z,32.97
2023-08-29T09:16:53.581Z,33.02
2023-08-29T09:19:23.058Z,33.10
2023-08-29T09:21:51.143Z,33.14
2023-08-29T09:24:35.899Z,33.16
2023-08-29T09:27:08.672Z,33.25
2023-08-29T09:29:35.974Z,33.31
2023-08-29T09:32:15.928Z,33.34
2023-08-29T09:34:42.987Z,33.35
2023-08-29T09:37:12.837Z,33.38
2023-08-29T09:39:39.952Z,33.43
2023-08-29T09:42:10.476Z,33.51
2023-08-29T09:44:39.269Z,33.56
2023-08-29T09:47:07.390Z,33.66
2023-08-29T09:49:49.264Z,33.72
2023-08-29T09:52:17.577Z,33.76
2023-08-29T09:54:52.265Z,33.83
2023-08-29T09:57:23.760Z,33.92
2023-08-29T09:59:52.477Z,34.05
2023-08-29T10:02:21.299Z,34.18
2023-08-29T10:04:58.290Z,34.29
2023-08-29T10:07:27.639Z,34.42
2023-08-29T10:09:55.962Z,34.53
2023-08-29T10:12:23.481Z,34.58
2023-08-29T10:14:50.754Z,34.58
2023-08-29T10:17:31.117Z,34.61
2023-08-29T10:19:47.573Z,34.68
2023-08-29T10:22:14.887Z,34.70
2023-08-29T10:24:44.279Z,34.76
2023-08-29T10:27:11.460Z,34.78
2023-08-29T10:29:38.716Z,34.81
2023-08-29T10:32:06.353Z,34.87
2023-08-29T10:34:33.657Z,34.97
2023-08-29T10:37:00.689Z,34.99
2023-08-29T10:39:28.332Z,35.04
2023-08-29T10:41:56.853Z,35.13
2023-08-29T10:44:45.130Z,35.18
2023-08-29T10:47:23.596Z,35.19
2023-08-29T10:49:59.380Z,35.20
2023-08-29T10:52:40.871Z,35.19
2023-08-29T10:55:20.679Z,35.18
2023-08-29T10:57:48.707Z,35.27
2023-08-29T11:00:20.892Z,35.31
2023-08-29T11:02:48.859Z,35.28
2023-08-29T11:05:16.952Z,35.30
2023-08-29T11:07:44.222Z,35.36
2023-08-29T11:10:18.539Z,35.44
2023-08-29T11:13:06.818Z,35.52
2023-08-29T11:15:55.951Z,35.57
2023-08-29T11:18:30.152Z,35.65
2023-08-29T11:20:57.492Z,35.82
2023-08-29T11:23:24.452Z,35.87
2023-08-29T11:25:53.079Z,35.90
2023-08-29T11:28:20.210Z,35.88
2023-08-29T11:30:47.679Z,35.85
2023-08-29T11:33:16.051Z,35.82
2023-08-29T11:35:43.260Z,35.82
2023-08-29T11:38:10.678Z,35.80
2023-08-29T11:40:49.116Z,35.84
2023-08-29T11:43:19.086Z,35.90
2023-08-29T11:45:45.619Z,35.89
2023-08-29T11:48:10.790Z,35.90
2023-08-29T11:50:41.472Z,35.87
2023-08-29T11:53:08.643Z,35.85
2023-08-29T11:55:36.334Z,35.82
2023-08-29T11:58:05.290Z,35.84
2023-08-29T12:00:32.815Z,35.92
2023-08-29T12:03:00.002Z,35.94
2023-08-29T12:05:27.490Z,35.96
2023-08-29T12:07:54.665Z,35.99
2023-08-29T12:10:22.015Z,35.99
2023-08-29T12:12:49.301Z,35.99
2023-08-29T12:15:24.313Z,35.99
2023-08-29T12:17:49.317Z,36.02
2023-08-29T12:20:20.478Z,35.93
2023-08-29T12:22:50.076Z,35.91
2023-08-29T12:25:19.494Z,35.93
2023-08-29T12:27:47.253Z,35.87
2023-08-29T12:30:15.112Z,35.69
2023-08-29T12:32:43.719Z,35.52
2023-08-29T12:35:12.110Z,35.42
2023-08-29T12:37:39.519Z,35.44
2023-08-29T12:40:09.465Z,35.53
2023-08-29T12:42:37.432Z,35.56
2023-08-29T12:45:06.672Z,35.61
2023-08-29T12:47:34.767Z,35.64
2023-08-29T12:50:02.137Z,35.67
2023-08-29T12:52:29.256Z,35.70
2023-08-29T12:54:56.339Z,35.73
2023-08-29T12:57:23.347Z,35.77
2023-08-29T12:59:50.738Z,35.81
2023-08-29T13:02:17.919Z,35.84
2023-08-29T13:04:46.447Z,35.92
2023-08-29T13:07:13.734Z,36.01
2023-08-29T13:09:42.198Z,36.09
2023-08-29T13:12:09.270Z,36.12
2023-08-29T13:14:40.044Z,36.16
2023-08-29T13:17:07.379Z,36.22
2023-08-29T13:19:34.714Z,36.28
2023-08-29T13:22:02.923Z,36.19
2023-08-29T13:24:30.130Z,36.15
2023-08-29T13:26:57.436Z,36.14
2023-08-29T13:29:24.865Z,36.01
2023-08-29T13:31:52.798Z,35.83
2023-08-29T13:34:20.084Z,35.76
2023-08-29T13:36:47.437Z,35.71
2023-08-29T13:39:14.703Z,35.66
2023-08-29T13:41:43.112Z,35.65
2023-08-29T13:44:11.174Z,35.66
2023-08-29T13:46:40.241Z,35.68
2023-08-29T13:49:07.602Z,35.66
2023-08-29T13:51:34.969Z,35.61
2023-08-29T13:54:02.330Z,35.53
2023-08-29T13:56:29.570Z,35.50
2023-08-29T13:58:58.412Z,35.45
2023-08-29T14:01:25.686Z,35.43
2023-08-29T14:03:53.228Z,35.41
2023-08-29T14:06:20.762Z,35.37
2023-08-29T14:08:48.953Z,35.37
2023-08-29T14:11:16.288Z,35.34
2023-08-29T14:13:43.643Z,35.34
2023-08-29T14:16:11.058Z,35.32
2023-08-29T14:18:40.626Z,35.23
2023-08-29T14:21:09.007Z,35.17
2023-08-29T14:23:36.251Z,35.15
2023-08-29T14:26:03.828Z,35.10
2023-08-29T14:28:31.025Z,35.02
2023-08-29T14:30:58.697Z,34.97
2023-08-29T14:33:25.936Z,34.96
2023-08-29T14:35:56.288Z,34.93
2023-08-29T14:38:23.585Z,34.89
2023-08-29T14:40:50.683Z,34.85
2023-08-29T14:43:18.383Z,34.81
2023-08-29T14:45:45.634Z,34.76
2023-08-29T14:48:12.740Z,34.70
2023-08-29T14:50:45.205Z,34.61
2023-08-29T14:53:12.345Z,34.46
2023-08-29T14:55:39.759Z,34.35
2023-08-29T14:58:07.391Z,34.34
2023-08-29T15:00:35.333Z,34.36
2023-08-29T15:03:06.069Z,34.40
2023-08-29T15:05:33.773Z,34.39
2023-08-29T15:08:00.891Z,34.37
2023-08-29T15:10:28.068Z,34.36
2023-08-29T15:12:55.164Z,34.21
2023-08-29T15:15:22.387Z,34.04
2023-08-29T15:17:49.675Z,33.84
2023-08-29T15:20:17.863Z,33.65
2023-08-29T15:22:45.347Z,33.45
2023-08-29T15:25:12.315Z,33.29
2023-08-29T15:27:39.411Z,33.17
2023-08-29T15:30:08.665Z,33.08
2023-08-29T15:32:35.939Z,32.94
2023-08-29T15:35:05.786Z,32.82
2023-08-29T15:37:33.386Z,32.70
2023-08-29T15:40:00.798Z,32.56
2023-08-29T15:42:28.137Z,32.44
2023-08-29T15:44:55.282Z,32.34
2023-08-29T15:47:22.333Z,32.24
2023-08-29T15:49:49.611Z,32.14
2023-08-29T15:52:16.715Z,32.06
2023-08-29T15:54:43.951Z,31.97
2023-08-29T15:57:11.192Z,31.90
2023-08-29T15:59:38.404Z,31.85
2023-08-29T16:02:06.032Z,31.79
2023-08-29T16:04:33.329Z,31.71
2023-08-29T16:07:00.385Z,31.66
2023-08-29T16:09:29.668Z,31.60
2023-08-29T16:11:57.077Z,31.55
2023-08-29T16:14:28.542Z,31.50
2023-08-29T16:16:57.275Z,31.43
2023-08-29T16:19:24.493Z,31.37
2023-08-29T16:21:51.665Z,31.29
2023-08-29T16:24:18.677Z,31.24
2023-08-29T16:26:45.833Z,31.17
2023-08-29T16:29:13.046Z,31.13
2023-08-29T16:31:41.349Z,31.05
2023-08-29T16:34:08.504Z,30.99
2023-08-29T16:36:35.588Z,30.95
2023-08-29T16:39:03.162Z,30.87
2023-08-29T16:41:30.372Z,30.82
2023-08-29T16:43:57.412Z,30.74
2023-08-29T16:46:26.227Z,30.69
2023-08-29T16:48:53.410Z,30.66
2023-08-29T16:51:20.638Z,30.65
2023-08-29T16:53:47.769Z,30.62
2023-08-29T16:56:14.964Z,30.56
2023-08-29T16:58:42.196Z,30.50
2023-08-29T17:01:09.574Z,30.43
2023-08-29T17:03:37.755Z,30.35
2023-08-29T17:06:05.132Z,30.26
2023-08-29T17:08:32.199Z,30.18
2023-08-29T17:10:59.360Z,30.08
2023-08-29T17:13:26.529Z,30.03
2023-08-29T17:15:53.726Z,29.98
2023-08-29T17:18:20.855Z,29.93
2023-08-29T17:20:48.018Z,29.89
2023-08-29T17:23:15.161Z,29.83
2023-08-29T17:25:42.447Z,29.82
2023-08-29T17:28:11.612Z,29.79
2023-08-29T17:30:38.689Z,29.76
2023-08-29T17:33:06.036Z,29.58
2023-08-29T17:35:33.465Z,29.34
2023-08-29T17:38:00.740Z,29.15
2023-08-29T17:40:27.947Z,29.05
2023-08-29T17:42:55.067Z,28.96
2023-08-29T17:45:22.244Z,28.90
2023-08-29T17:47:49.510Z,28.78
2023-08-29T17:50:16.821Z,28.59
2023-08-29T17:52:45.293Z,28.33
2023-08-29T17:55:12.484Z,27.71
2023-08-29T17:57:39.691Z,27.03
2023-08-29T18:00:07.977Z,26.52
2023-08-29T18:02:36.932Z,26.21
2023-08-29T18:05:05.125Z,25.85
2023-08-29T18:07:32.465Z,25.53
2023-08-29T18:10:08.172Z,25.26
2023-08-29T18:12:37.420Z,25.09
2023-08-29T18:15:06.174Z,25.01
2023-08-29T18:17:33.593Z,24.94
2023-08-29T18:20:01.013Z,24.84
2023-08-29T18:22:29.751Z,24.69
2023-08-29T18:24:57.116Z,24.55
2023-08-29T18:27:26.349Z,24.41
2023-08-29T18:29:53.665Z,24.32
2023-08-29T18:32:20.807Z,24.21
2023-08-29T18:34:49.794Z,24.11
2023-08-29T18:37:16.987Z,24.01
2023-08-29T18:39:44.481Z,23.96
2023-08-29T18:42:11.747Z,23.92
2023-08-29T18:44:39.122Z,23.79
2023-08-29T18:47:06.305Z,23.59
2023-08-29T18:49:35.479Z,23.46
2023-08-29T18:52:03.782Z,23.40
2023-08-29T18:54:34.625Z,23.37
2023-08-29T18:57:02.086Z,23.32
2023-08-29T18:59:29.511Z,23.29
2023-08-29T19:01:59.144Z,23.32
2023-08-29T19:04:26.341Z,23.40
2023-08-29T19:06:53.544Z,23.45
2023-08-29T19:09:20.819Z,23.40
2023-08-29T19:11:47.837Z,23.39
2023-08-29T19:14:14.914Z,23.38
2023-08-29T19:16:41.972Z,23.33
2023-08-29T19:19:10.977Z,23.20
2023-08-29T19:21:40.143Z,23.15
2023-08-29T19:24:08.385Z,23.12
2023-08-29T19:26:36.602Z,23.07
2023-08-29T19:29:03.963Z,23.02
2023-08-29T19:31:31.215Z,22.96
2023-08-29T19:33:58.504Z,22.96
2023-08-29T19:36:26.397Z,22.98
2023-08-29T19:38:59.116Z,23.00
2023-08-29T19:41:22.844Z,23.01
2023-08-29T19:43:49.920Z,23.04
2023-08-29T19:46:17.124Z,22.98
2023-08-29T19:48:44.203Z,22.90
2023-08-29T19:51:11.695Z,22.81
2023-08-29T19:53:38.985Z,22.73
2023-08-29T19:56:06.457Z,22.62
2023-08-29T19:58:35.469Z,22.49
2023-08-29T20:01:07.179Z,22.33
2023-08-29T20:03:35.156Z,22.28
2023-08-29T20:06:02.742Z,22.27
2023-08-29T20:08:30.009Z,22.23
2023-08-29T20:10:57.251Z,22.13
2023-08-29T20:13:24.372Z,22.06
2023-08-29T20:15:51.633Z,22.01
2023-08-29T20:18:18.982Z,21.85
2023-08-29T20:20:46.360Z,21.76
2023-08-29T20:23:13.540Z,21.72
2023-08-29T20:25:40.560Z,21.75
2023-08-29T20:28:08.109Z,21.78
2023-08-29T20:30:36.221Z,21.81
2023-08-29T20:33:04.328Z,21.79
2023-08-29T20:35:33.221Z,21.78
2023-08-29T20:38:00.797Z,21.82
2023-08-29T20:40:27.945Z,21.88
2023-08-29T20:42:55.317Z,21.94
2023-08-29T20:45:24.321Z,21.99
2023-08-29T20:47:51.638Z,22.00
2023-08-29T20:50:21.144Z,22.03
2023-08-29T20:52:48.343Z,22.09
2023-08-29T20:55:15.579Z,22.12
2023-08-29T20:57:43.707Z,22.14
2023-08-29T21:00:13.187Z,22.15
2023-08-29T21:02:40.887Z,22.15
2023-08-29T21:05:08.773Z,22.13
2023-08-29T21:07:36.011Z,22.12
2023-08-29T21:10:03.913Z,22.10
2023-08-29T21:12:32.135Z,22.06
2023-08-29T21:14:59.133Z,22.06
2023-08-29T21:17:26.870Z,22.05
2023-08-29T21:19:54.449Z,22.04
2023-08-29T21:22:21.534Z,22.02
2023-08-29T21:24:48.820Z,22.01
2023-08-29T21:27:16.032Z,21.92
2023-08-29T21:29:44.078Z,21.92
2023-08-29T21:32:11.503Z,21.97
2023-08-29T21:34:38.525Z,22.05
2023-08-29T21:37:06.332Z,22.10
2023-08-29T21:39:33.632Z,22.12
2023-08-29T21:42:00.997Z,22.12
2023-08-29T21:44:28.134Z,22.10
2023-08-29T21:46:55.296Z,22.03
2023-08-29T21:49:22.301Z,21.84
2023-08-29T21:51:49.420Z,21.63
2023-08-29T21:54:16.616Z,21.47
2023-08-29T21:56:44.372Z,21.38
2023-08-29T21:59:11.661Z,21.38
2023-08-29T22:01:38.904Z,21.42
2023-08-29T22:04:06.384Z,21.40
2023-08-29T22:06:33.555Z,21.41
2023-08-29T22:09:00.700Z,21.47
2023-08-29T22:11:27.680Z,21.56
2023-08-29T22:13:54.786Z,21.60
2023-08-29T22:16:21.923Z,21.63
2023-08-29T22:18:49.241Z,21.64
2023-08-29T22:21:16.634Z,21.64
2023-08-29T22:23:44.108Z,21.65
2023-08-29T22:26:12.742Z,21.63
2023-08-29T22:28:39.802Z,21.61
2023-08-29T22:31:06.932Z,21.47
2023-08-29T22:33:34.211Z,21.32
2023-08-29T22:36:01.450Z,21.27
2023-08-29T22:38:29.118Z,21.27
2023-08-29T22:41:21.240Z,21.30
2023-08-29T22:43:40.216Z,21.38
2023-08-29T22:46:08.985Z,21.44
2023-08-29T22:48:36.208Z,21.53
2023-08-29T22:51:04.818Z,21.60
2023-08-29T22:53:31.986Z,21.61
2023-08-29T22:56:03.359Z,21.67
2023-08-29T22:58:30.500Z,21.74
2023-08-29T23:00:59.667Z,21.81
2023-08-29T23:03:26.973Z,21.84
2023-08-29T23:05:54.458Z,21.84
2023-08-29T23:08:21.874Z,21.82
2023-08-29T23:10:49.312Z,21.81
2023-08-29T23:13:18.341Z,21.76
2023-08-29T23:15:47.482Z,21.74
2023-08-29T23:18:14.801Z,21.71
2023-08-29T23:20:41.907Z,21.67
2023-08-29T23:23:09.370Z,21.62
2023-08-29T23:25:37.437Z,21.61
2023-08-29T23:28:04.735Z,21.61
2023-08-29T23:30:35.502Z,21.62
2023-08-29T23:33:03.654Z,21.57
2023-08-29T23:35:30.993Z,21.50
2023-08-29T23:37:58.255Z,21.49
2023-08-29T23:40:26.856Z,21.50
2023-08-29T23:42:54.228Z,21.50
2023-08-29T23:45:21.484Z,21.48
2023-08-29T23:47:48.605Z,21.46
2023-08-29T23:50:16.036Z,21.46
2023-08-29T23:52:43.328Z,21.45
2023-08-29T23:55:10.497Z,21.44
2023-08-29T23:57:37.562Z,21.42
